createdAt,value
2018-01-20T00:00:03.696Z,1003.16
2018-01-20T00:00:44.253Z,1003.14
2018-01-20T00:01:24.812Z,1003.16
2018-01-20T00:02:05.390Z,1003.13
2018-01-20T00:02:45.948Z,1003.14
2018-01-20T00:03:26.504Z,1003.12
2018-01-20T00:04:07.075Z,1003.15
2018-01-20T00:04:47.648Z,1003.11
2018-01-20T00:05:28.217Z,1003.15
2018-01-20T00:06:08.779Z,1003.1
2018-01-20T00:06:49.350Z,1003.11
2018-01-20T00:07:29.917Z,1003.11
2018-01-20T00:08:10.478Z,1003.08
2018-01-20T00:08:51.033Z,1003.09
2018-01-20T00:09:31.614Z,1003.11
2018-01-20T00:10:12.172Z,1003.13
2018-01-20T00:10:52.837Z,1003.11
2018-01-20T00:11:33.436Z,1003.05
2018-01-20T00:12:14.019Z,1003.06
2018-01-20T00:12:54.580Z,1003.07
2018-01-20T00:13:35.161Z,1003.07
2018-01-20T00:14:15.729Z,1003.02
2018-01-20T00:14:56.329Z,1003.04
2018-01-20T00:15:36.904Z,1003
2018-01-20T00:16:17.492Z,1002.97
2018-01-20T00:16:58.051Z,1002.99
2018-01-20T00:17:38.649Z,1003
2018-01-20T00:18:19.217Z,1003.02
2018-01-20T00:18:59.794Z,1002.96
2018-01-20T00:19:40.400Z,1002.99
2018-01-20T00:20:20.960Z,1003
2018-01-20T00:21:01.520Z,1002.95
2018-01-20T00:21:42.073Z,1003
2018-01-20T00:22:22.651Z,1002.94
2018-01-20T00:23:03.238Z,1002.97
2018-01-20T00:23:43.806Z,1002.94
2018-01-20T00:24:24.362Z,1002.92
2018-01-20T00:25:04.930Z,1002.94
2018-01-20T00:25:45.511Z,1002.9
2018-01-20T00:26:26.057Z,1002.89
2018-01-20T00:27:06.629Z,1002.88
2018-01-20T00:27:47.182Z,1002.87
2018-01-20T00:28:27.764Z,1002.88
2018-01-20T00:29:08.323Z,1002.83
2018-01-20T00:29:48.881Z,1002.84
2018-01-20T00:30:29.454Z,1002.86
2018-01-20T00:31:10.016Z,1002.86
2018-01-20T00:31:50.577Z,1002.86
2018-01-20T00:32:31.129Z,1002.85
2018-01-20T00:33:11.697Z,1002.79
2018-01-20T00:33:52.263Z,1002.84
2018-01-20T00:34:32.818Z,1002.9
2018-01-20T00:35:13.384Z,1002.88
2018-01-20T00:35:53.941Z,1002.88
2018-01-20T00:36:34.500Z,1002.95
2018-01-20T00:37:15.065Z,1002.89
2018-01-20T00:37:55.624Z,1002.9
2018-01-20T00:38:36.207Z,1002.87
2018-01-20T00:39:16.775Z,1002.91
2018-01-20T00:39:57.327Z,1002.92
2018-01-20T00:40:37.895Z,1002.93
2018-01-20T00:41:18.464Z,1002.94
2018-01-20T00:41:59.029Z,1002.9
2018-01-20T00:42:39.583Z,1002.92
2018-01-20T00:43:20.147Z,1002.9
2018-01-20T00:44:00.704Z,1002.9
2018-01-20T00:44:41.267Z,1002.87
2018-01-20T00:45:21.854Z,1002.93
2018-01-20T00:46:02.426Z,1002.96
2018-01-20T00:46:43.027Z,1002.91
2018-01-20T00:47:23.592Z,1002.92
2018-01-20T00:48:04.143Z,1002.88
2018-01-20T00:48:44.705Z,1002.89
2018-01-20T00:49:25.277Z,1002.92
2018-01-20T00:50:05.836Z,1002.94
2018-01-20T00:50:46.397Z,1002.97
2018-01-20T00:51:26.949Z,1002.92
2018-01-20T00:52:07.515Z,1002.88
2018-01-20T00:52:48.083Z,1002.9
2018-01-20T00:53:28.644Z,1002.83
2018-01-20T00:54:09.211Z,1002.84
2018-01-20T00:54:49.773Z,1002.91
2018-01-20T00:55:30.335Z,1002.88
2018-01-20T00:56:10.893Z,1002.88
2018-01-20T00:56:51.458Z,1002.87
2018-01-20T00:57:32.021Z,1002.88
2018-01-20T00:58:12.579Z,1002.91
2018-01-20T00:58:53.144Z,1002.9
2018-01-20T00:59:33.721Z,1002.92
2018-01-20T01:00:14.291Z,1002.93
2018-01-20T01:00:54.868Z,1002.93
2018-01-20T01:01:35.421Z,1002.93
2018-01-20T01:02:15.991Z,1002.92
2018-01-20T01:02:56.550Z,1002.92
2018-01-20T01:03:37.149Z,1002.97
2018-01-20T01:04:17.693Z,1002.96
2018-01-20T01:04:58.246Z,1002.97
2018-01-20T01:05:38.803Z,1002.94
2018-01-20T01:06:19.358Z,1002.99
2018-01-20T01:06:59.904Z,1002.94
2018-01-20T01:07:40.458Z,1002.94
2018-01-20T01:08:21.012Z,1002.91
2018-01-20T01:09:01.570Z,1002.9
2018-01-20T01:09:42.132Z,1002.9
2018-01-20T01:10:22.695Z,1002.91
2018-01-20T01:11:03.259Z,1002.95
2018-01-20T01:11:43.822Z,1002.93
2018-01-20T01:12:24.378Z,1002.92
2018-01-20T01:13:04.962Z,1002.91
2018-01-20T01:13:48.017Z,1002.95
2018-01-20T01:14:28.574Z,1002.99
2018-01-20T01:15:09.134Z,1002.96
2018-01-20T01:15:49.683Z,1002.97
2018-01-20T01:16:30.240Z,1002.98
2018-01-20T01:17:10.812Z,1002.97
2018-01-20T01:17:51.366Z,1002.96
2018-01-20T01:18:31.910Z,1003.02
2018-01-20T01:19:12.484Z,1003
2018-01-20T01:19:53.026Z,1003.03
2018-01-20T01:20:33.587Z,1003.01
2018-01-20T01:21:14.136Z,1003.02
2018-01-20T01:21:54.696Z,1003.04
2018-01-20T01:22:35.248Z,1003.02
2018-01-20T01:23:15.804Z,1003.04
2018-01-20T01:23:56.364Z,1003.02
2018-01-20T01:24:36.928Z,1003.03
2018-01-20T01:25:17.556Z,1003.06
2018-01-20T01:25:58.127Z,1003.05
2018-01-20T01:26:38.688Z,1003.03
2018-01-20T01:27:19.242Z,1003.03
2018-01-20T01:27:59.794Z,1003.04
2018-01-20T01:28:40.352Z,1003.01
2018-01-20T01:29:20.914Z,1003.06
2018-01-20T01:30:01.476Z,1003.03
2018-01-20T01:30:42.044Z,1003.03
2018-01-20T01:31:22.613Z,1003.01
2018-01-20T01:32:03.184Z,1002.99
2018-01-20T01:32:43.750Z,1002.98
2018-01-20T01:33:24.302Z,1003.03
2018-01-20T01:34:04.880Z,1003
2018-01-20T01:34:45.453Z,1003.02
2018-01-20T01:35:26.012Z,1003.04
2018-01-20T01:36:06.585Z,1003.01
2018-01-20T01:36:47.143Z,1003.04
2018-01-20T01:37:27.728Z,1003.02
2018-01-20T01:38:08.298Z,1003.02
2018-01-20T01:38:48.860Z,1002.97
2018-01-20T01:39:29.430Z,1002.99
2018-01-20T01:40:09.996Z,1002.99
2018-01-20T01:40:50.548Z,1002.98
2018-01-20T01:41:31.110Z,1002.97
2018-01-20T01:42:11.702Z,1002.96
2018-01-20T01:42:52.270Z,1002.94
2018-01-20T01:43:32.844Z,1002.98
2018-01-20T01:44:13.408Z,1002.96
2018-01-20T01:44:53.966Z,1002.98
2018-01-20T01:45:34.522Z,1002.98
2018-01-20T01:46:15.080Z,1003
2018-01-20T01:46:55.632Z,1002.98
2018-01-20T01:47:36.197Z,1002.99
2018-01-20T01:48:16.755Z,1002.98
2018-01-20T01:48:57.315Z,1002.95
2018-01-20T01:49:37.901Z,1003.01
2018-01-20T01:50:18.467Z,1002.96
2018-01-20T01:50:59.017Z,1002.91
2018-01-20T01:51:39.577Z,1002.97
2018-01-20T01:52:20.136Z,1002.95
2018-01-20T01:53:00.700Z,1002.98
2018-01-20T01:53:41.254Z,1002.93
2018-01-20T01:54:21.806Z,1002.93
2018-01-20T01:55:02.374Z,1002.96
2018-01-20T01:55:42.929Z,1002.95
2018-01-20T01:56:23.502Z,1002.95
2018-01-20T01:57:04.077Z,1002.96
2018-01-20T01:57:44.634Z,1002.95
2018-01-20T01:58:25.192Z,1002.95
2018-01-20T01:59:05.740Z,1002.94
2018-01-20T01:59:46.306Z,1002.93
2018-01-20T02:00:26.856Z,1002.96
2018-01-20T02:01:07.415Z,1002.93
2018-01-20T02:01:48.006Z,1002.94
2018-01-20T02:02:28.570Z,1002.93
2018-01-20T02:03:09.127Z,1002.96
2018-01-20T02:03:49.686Z,1002.97
2018-01-20T02:04:30.247Z,1002.95
2018-01-20T02:05:10.826Z,1002.92
2018-01-20T02:05:51.383Z,1002.92
2018-01-20T02:06:31.939Z,1002.99
2018-01-20T02:07:12.497Z,1002.94
2018-01-20T02:07:53.054Z,1002.94
2018-01-20T02:08:33.626Z,1002.94
2018-01-20T02:09:14.175Z,1002.9
2018-01-20T02:09:54.737Z,1002.93
2018-01-20T02:10:35.289Z,1002.93
2018-01-20T02:11:15.849Z,1002.93
2018-01-20T02:11:56.401Z,1002.92
2018-01-20T02:12:36.956Z,1002.93
2018-01-20T02:13:17.516Z,1002.92
2018-01-20T02:13:58.101Z,1002.9
2018-01-20T02:14:38.655Z,1002.9
2018-01-20T02:15:19.212Z,1002.89
2018-01-20T02:15:59.766Z,1002.91
2018-01-20T02:16:40.341Z,1002.9
2018-01-20T02:17:20.911Z,1002.85
2018-01-20T02:18:01.488Z,1002.84
2018-01-20T02:18:42.047Z,1002.88
2018-01-20T02:19:22.598Z,1002.83
2018-01-20T02:20:03.153Z,1002.8
2018-01-20T02:20:43.713Z,1002.83
2018-01-20T02:21:24.263Z,1002.85
2018-01-20T02:22:04.868Z,1002.9
2018-01-20T02:22:45.417Z,1002.93
2018-01-20T02:23:25.975Z,1002.89
2018-01-20T02:24:06.520Z,1002.86
2018-01-20T02:24:47.071Z,1002.88
2018-01-20T02:25:27.624Z,1002.87
2018-01-20T02:26:08.184Z,1002.9
2018-01-20T02:26:48.761Z,1002.89
2018-01-20T02:27:29.316Z,1002.86
2018-01-20T02:28:09.889Z,1002.81
2018-01-20T02:28:50.467Z,1002.86
2018-01-20T02:29:31.021Z,1002.85
2018-01-20T02:30:11.577Z,1002.82
2018-01-20T02:30:52.132Z,1002.81
2018-01-20T02:31:32.736Z,1002.85
2018-01-20T02:32:13.250Z,1002.84
2018-01-20T02:32:53.805Z,1002.83
2018-01-20T02:33:34.371Z,1002.8
2018-01-20T02:34:14.932Z,1002.78
2018-01-20T02:34:55.526Z,1002.79
2018-01-20T02:35:36.087Z,1002.72
2018-01-20T02:36:16.642Z,1002.74
2018-01-20T02:36:57.203Z,1002.69
2018-01-20T02:37:37.753Z,1002.7
2018-01-20T02:38:18.316Z,1002.68
2018-01-20T02:38:58.895Z,1002.7
2018-01-20T02:39:39.462Z,1002.69
2018-01-20T02:40:20.021Z,1002.68
2018-01-20T02:41:00.580Z,1002.68
2018-01-20T02:41:41.142Z,1002.67
2018-01-20T02:42:21.708Z,1002.71
2018-01-20T02:43:02.264Z,1002.68
2018-01-20T02:43:42.830Z,1002.62
2018-01-20T02:44:23.404Z,1002.65
2018-01-20T02:45:03.976Z,1002.62
2018-01-20T02:45:44.529Z,1002.65
2018-01-20T02:46:25.097Z,1002.62
2018-01-20T02:47:05.659Z,1002.61
2018-01-20T02:47:46.229Z,1002.67
2018-01-20T02:48:26.785Z,1002.57
2018-01-20T02:49:07.355Z,1002.59
2018-01-20T02:49:47.913Z,1002.61
2018-01-20T02:50:28.469Z,1002.56
2018-01-20T02:51:09.031Z,1002.55
2018-01-20T02:51:49.589Z,1002.56
2018-01-20T02:52:30.152Z,1002.57
2018-01-20T02:53:10.712Z,1002.55
2018-01-20T02:53:51.282Z,1002.57
2018-01-20T02:54:31.835Z,1002.57
2018-01-20T02:55:12.386Z,1002.56
2018-01-20T02:55:52.980Z,1002.55
2018-01-20T02:56:33.539Z,1002.57
2018-01-20T02:57:14.099Z,1002.51
2018-01-20T02:57:54.656Z,1002.56
2018-01-20T02:58:35.212Z,1002.54
2018-01-20T02:59:15.770Z,1002.55
2018-01-20T02:59:56.335Z,1002.54
2018-01-20T03:00:36.888Z,1002.52
2018-01-20T03:01:17.475Z,1002.53
2018-01-20T03:01:58.032Z,1002.56
2018-01-20T03:02:38.593Z,1002.49
2018-01-20T03:03:19.153Z,1002.53
2018-01-20T03:03:59.726Z,1002.54
2018-01-20T03:04:40.310Z,1002.52
2018-01-20T03:05:20.861Z,1002.49
2018-01-20T03:06:01.419Z,1002.5
2018-01-20T03:06:41.976Z,1002.48
2018-01-20T03:07:22.543Z,1002.49
2018-01-20T03:08:03.113Z,1002.48
2018-01-20T03:08:43.669Z,1002.48
2018-01-20T03:09:24.229Z,1002.48
2018-01-20T03:10:04.791Z,1002.45
2018-01-20T03:10:45.419Z,1002.44
2018-01-20T03:11:25.970Z,1002.49
2018-01-20T03:12:06.543Z,1002.43
2018-01-20T03:12:47.093Z,1002.48
2018-01-20T03:13:27.647Z,1002.47
2018-01-20T03:14:08.197Z,1002.51
2018-01-20T03:14:48.750Z,1002.49
2018-01-20T03:15:29.306Z,1002.48
2018-01-20T03:16:09.859Z,1002.47
2018-01-20T03:16:50.410Z,1002.47
2018-01-20T03:17:30.977Z,1002.47
2018-01-20T03:18:11.535Z,1002.44
2018-01-20T03:18:52.095Z,1002.48
2018-01-20T03:19:32.668Z,1002.47
2018-01-20T03:20:13.226Z,1002.48
2018-01-20T03:20:53.783Z,1002.46
2018-01-20T03:21:34.339Z,1002.47
2018-01-20T03:22:14.891Z,1002.49
2018-01-20T03:22:55.452Z,1002.47
2018-01-20T03:23:36.000Z,1002.48
2018-01-20T03:24:16.549Z,1002.46
2018-01-20T03:24:57.104Z,1002.46
2018-01-20T03:25:37.667Z,1002.49
2018-01-20T03:26:18.225Z,1002.48
2018-01-20T03:26:58.783Z,1002.48
2018-01-20T03:27:39.348Z,1002.44
2018-01-20T03:28:19.942Z,1002.5
2018-01-20T03:29:00.501Z,1002.48
2018-01-20T03:29:41.068Z,1002.44
2018-01-20T03:30:21.627Z,1002.42
2018-01-20T03:31:02.185Z,1002.44
2018-01-20T03:31:42.755Z,1002.43
2018-01-20T03:32:23.318Z,1002.45
2018-01-20T03:33:03.890Z,1002.44
2018-01-20T03:33:44.450Z,1002.49
2018-01-20T03:34:25.006Z,1002.45
2018-01-20T03:35:05.564Z,1002.43
2018-01-20T03:35:46.129Z,1002.45
2018-01-20T03:36:26.686Z,1002.43
2018-01-20T03:37:07.235Z,1002.44
2018-01-20T03:37:47.795Z,1002.47
2018-01-20T03:38:28.346Z,1002.44
2018-01-20T03:39:08.898Z,1002.46
2018-01-20T03:39:49.462Z,1002.42
2018-01-20T03:40:30.046Z,1002.45
2018-01-20T03:41:10.606Z,1002.41
2018-01-20T03:41:51.166Z,1002.46
2018-01-20T03:42:31.713Z,1002.41
2018-01-20T03:43:12.275Z,1002.41
2018-01-20T03:43:52.834Z,1002.44
2018-01-20T03:44:33.411Z,1002.45
2018-01-20T03:45:13.964Z,1002.43
2018-01-20T03:45:54.523Z,1002.42
2018-01-20T03:46:35.088Z,1002.37
2018-01-20T03:47:15.643Z,1002.41
2018-01-20T03:47:56.193Z,1002.36
2018-01-20T03:48:36.760Z,1002.35
2018-01-20T03:49:17.299Z,1002.35
2018-01-20T03:49:57.858Z,1002.36
2018-01-20T03:50:38.419Z,1002.41
2018-01-20T03:51:18.980Z,1002.41
2018-01-20T03:51:59.553Z,1002.41
2018-01-20T03:52:40.154Z,1002.43
2018-01-20T03:53:20.710Z,1002.4
2018-01-20T03:54:01.273Z,1002.41
2018-01-20T03:54:41.836Z,1002.45
2018-01-20T03:55:22.389Z,1002.44
2018-01-20T03:56:02.940Z,1002.42
2018-01-20T03:56:43.490Z,1002.4
2018-01-20T03:57:24.069Z,1002.42
2018-01-20T03:58:04.624Z,1002.39
2018-01-20T03:58:45.192Z,1002.41
2018-01-20T03:59:25.742Z,1002.39
2018-01-20T04:00:06.296Z,1002.42
2018-01-20T04:00:46.850Z,1002.45
2018-01-20T04:01:27.413Z,1002.38
2018-01-20T04:02:07.978Z,1002.41
2018-01-20T04:02:48.530Z,1002.37
2018-01-20T04:03:29.101Z,1002.43
2018-01-20T04:04:09.670Z,1002.37
2018-01-20T04:04:50.221Z,1002.39
2018-01-20T04:05:30.771Z,1002.41
2018-01-20T04:06:11.319Z,1002.39
2018-01-20T04:06:51.873Z,1002.38
2018-01-20T04:07:32.435Z,1002.38
2018-01-20T04:08:12.996Z,1002.38
2018-01-20T04:08:53.565Z,1002.42
2018-01-20T04:09:34.117Z,1002.39
2018-01-20T04:10:14.688Z,1002.41
2018-01-20T04:10:55.262Z,1002.42
2018-01-20T04:11:35.815Z,1002.4
2018-01-20T04:12:16.376Z,1002.45
2018-01-20T04:12:56.941Z,1002.47
2018-01-20T04:13:37.505Z,1002.43
2018-01-20T04:14:18.077Z,1002.47
2018-01-20T04:14:58.641Z,1002.44
2018-01-20T04:15:39.199Z,1002.44
2018-01-20T04:16:19.763Z,1002.42
2018-01-20T04:17:00.330Z,1002.45
2018-01-20T04:17:40.896Z,1002.42
2018-01-20T04:18:21.455Z,1002.43
2018-01-20T04:19:02.017Z,1002.44
2018-01-20T04:19:42.590Z,1002.4
2018-01-20T04:20:23.163Z,1002.46
2018-01-20T04:21:03.724Z,1002.45
2018-01-20T04:21:44.278Z,1002.45
2018-01-20T04:22:24.841Z,1002.43
2018-01-20T04:23:05.404Z,1002.43
2018-01-20T04:23:45.964Z,1002.4
2018-01-20T04:24:26.520Z,1002.43
2018-01-20T04:25:07.091Z,1002.43
2018-01-20T04:25:47.652Z,1002.4
2018-01-20T04:26:28.231Z,1002.38
2018-01-20T04:27:08.780Z,1002.39
2018-01-20T04:27:49.334Z,1002.36
2018-01-20T04:28:29.910Z,1002.37
2018-01-20T04:29:10.493Z,1002.37
2018-01-20T04:29:51.051Z,1002.35
2018-01-20T04:30:31.615Z,1002.4
2018-01-20T04:31:12.177Z,1002.41
2018-01-20T04:31:52.731Z,1002.4
2018-01-20T04:32:33.298Z,1002.42
2018-01-20T04:33:13.878Z,1002.44
2018-01-20T04:33:54.492Z,1002.4
2018-01-20T04:34:35.011Z,1002.42
2018-01-20T04:35:15.592Z,1002.43
2018-01-20T04:35:56.154Z,1002.4
2018-01-20T04:36:36.719Z,1002.37
2018-01-20T04:37:17.275Z,1002.39
2018-01-20T04:37:57.825Z,1002.4
2018-01-20T04:38:38.385Z,1002.4
2018-01-20T04:39:18.945Z,1002.4
2018-01-20T04:39:59.497Z,1002.42
2018-01-20T04:40:40.135Z,1002.43
2018-01-20T04:41:20.692Z,1002.4
2018-01-20T04:42:01.248Z,1002.4
2018-01-20T04:42:41.798Z,1002.34
2018-01-20T04:43:22.359Z,1002.31
2018-01-20T04:44:02.924Z,1002.35
2018-01-20T04:44:43.477Z,1002.3
2018-01-20T04:45:24.082Z,1002.32
2018-01-20T04:46:04.642Z,1002.28
2018-01-20T04:46:45.237Z,1002.3
2018-01-20T04:47:25.827Z,1002.27
2018-01-20T04:48:06.400Z,1002.28
2018-01-20T04:48:46.945Z,1002.32
2018-01-20T04:49:27.510Z,1002.3
2018-01-20T04:50:08.070Z,1002.25
2018-01-20T04:50:48.632Z,1002.27
2018-01-20T04:51:29.333Z,1002.31
2018-01-20T04:52:09.910Z,1002.23
2018-01-20T04:52:50.457Z,1002.31
2018-01-20T04:53:31.025Z,1002.26
2018-01-20T04:54:11.589Z,1002.24
2018-01-20T04:54:52.146Z,1002.22
2018-01-20T04:55:32.700Z,1002.25
2018-01-20T04:56:13.261Z,1002.22
2018-01-20T04:56:53.821Z,1002.23
2018-01-20T04:57:34.378Z,1002.25
2018-01-20T04:58:14.944Z,1002.26
2018-01-20T04:58:55.509Z,1002.27
2018-01-20T04:59:36.108Z,1002.25
2018-01-20T05:00:16.659Z,1002.21
2018-01-20T05:00:57.409Z,1002.22
2018-01-20T05:01:37.964Z,1002.26
2018-01-20T05:02:18.518Z,1002.19
2018-01-20T05:02:59.075Z,1002.18
2018-01-20T05:03:39.625Z,1002.23
2018-01-20T05:04:20.188Z,1002.2
2018-01-20T05:05:00.765Z,1002.22
2018-01-20T05:05:41.324Z,1002.22
2018-01-20T05:06:21.882Z,1002.23
2018-01-20T05:07:02.443Z,1002.23
2018-01-20T05:07:42.992Z,1002.24
2018-01-20T05:08:23.566Z,1002.22
2018-01-20T05:09:04.120Z,1002.25
2018-01-20T05:09:44.675Z,1002.21
2018-01-20T05:10:25.249Z,1002.23
2018-01-20T05:11:05.810Z,1002.26
2018-01-20T05:11:46.429Z,1002.24
2018-01-20T05:12:27.082Z,1002.24
2018-01-20T05:13:07.709Z,1002.23
2018-01-20T05:13:48.369Z,1002.24
2018-01-20T05:14:29.031Z,1002.2
2018-01-20T05:15:09.775Z,1002.24
2018-01-20T05:15:50.334Z,1002.27
2018-01-20T05:16:30.903Z,1002.24
2018-01-20T05:17:11.539Z,1002.23
2018-01-20T05:17:52.224Z,1002.22
2018-01-20T05:18:32.863Z,1002.23
2018-01-20T05:19:13.549Z,1002.22
2018-01-20T05:19:54.205Z,1002.24
2018-01-20T05:20:34.800Z,1002.25
2018-01-20T05:21:15.495Z,1002.26
2018-01-20T05:21:56.109Z,1002.28
2018-01-20T05:22:36.850Z,1002.21
2018-01-20T05:23:17.536Z,1002.22
2018-01-20T05:23:58.188Z,1002.25
2018-01-20T05:24:38.740Z,1002.24
2018-01-20T05:25:19.297Z,1002.22
2018-01-20T05:25:59.856Z,1002.26
2018-01-20T05:26:40.426Z,1002.22
2018-01-20T05:27:21.017Z,1002.25
2018-01-20T05:28:01.581Z,1002.24
2018-01-20T05:28:42.156Z,1002.2
2018-01-20T05:29:22.719Z,1002.19
2018-01-20T05:30:03.309Z,1002.2
2018-01-20T05:30:43.989Z,1002.2
2018-01-20T05:31:24.577Z,1002.2
2018-01-20T05:32:05.155Z,1002.2
2018-01-20T05:32:45.735Z,1002.2
2018-01-20T05:33:26.291Z,1002.18
2018-01-20T05:34:06.850Z,1002.2
2018-01-20T05:34:47.424Z,1002.18
2018-01-20T05:35:27.977Z,1002.2
2018-01-20T05:36:08.533Z,1002.19
2018-01-20T05:36:49.097Z,1002.18
2018-01-20T05:37:29.666Z,1002.15
2018-01-20T05:38:10.247Z,1002.21
2018-01-20T05:38:50.808Z,1002.16
2018-01-20T05:39:31.371Z,1002.17
2018-01-20T05:40:11.928Z,1002.11
2018-01-20T05:40:52.566Z,1002.14
2018-01-20T05:41:33.083Z,1002.15
2018-01-20T05:42:13.639Z,1002.09
2018-01-20T05:42:54.249Z,1002.14
2018-01-20T05:43:34.793Z,1002.17
2018-01-20T05:44:15.380Z,1002.13
2018-01-20T05:44:55.940Z,1002.14
2018-01-20T05:45:36.495Z,1002.1
2018-01-20T05:46:17.056Z,1002.11
2018-01-20T05:46:57.626Z,1002.12
2018-01-20T05:47:38.189Z,1002.14
2018-01-20T05:48:18.744Z,1002.16
2018-01-20T05:48:59.312Z,1002.16
2018-01-20T05:49:39.873Z,1002.15
2018-01-20T05:50:20.438Z,1002.17
2018-01-20T05:51:01.002Z,1002.1
2018-01-20T05:51:41.555Z,1002.08
2018-01-20T05:52:22.140Z,1002.12
2018-01-20T05:53:02.700Z,1002.13
2018-01-20T05:53:43.271Z,1002.12
2018-01-20T05:54:23.828Z,1002.13
2018-01-20T05:55:04.389Z,1002.13
2018-01-20T05:55:44.964Z,1002.09
2018-01-20T05:56:25.522Z,1002.06
2018-01-20T05:57:06.078Z,1002.12
2018-01-20T05:57:46.633Z,1002.12
2018-01-20T05:58:27.192Z,1002.1
2018-01-20T05:59:07.792Z,1002.13
2018-01-20T05:59:48.359Z,1002.13
2018-01-20T06:00:28.928Z,1002.11
2018-01-20T06:01:09.487Z,1002.16
2018-01-20T06:01:50.045Z,1002.08
2018-01-20T06:02:30.619Z,1002.1
2018-01-20T06:03:11.178Z,1002.08
2018-01-20T06:03:51.735Z,1002.09
2018-01-20T06:04:32.304Z,1002.14
2018-01-20T06:05:12.847Z,1002.1
2018-01-20T06:05:53.417Z,1002.12
2018-01-20T06:06:33.994Z,1002.15
2018-01-20T06:07:14.552Z,1002.1
2018-01-20T06:07:55.134Z,1002.12
2018-01-20T06:08:35.690Z,1002.13
2018-01-20T06:09:16.253Z,1002.15
2018-01-20T06:09:56.811Z,1002.13
2018-01-20T06:10:37.365Z,1002.17
2018-01-20T06:11:17.921Z,1002.15
2018-01-20T06:11:58.470Z,1002.15
2018-01-20T06:12:39.027Z,1002.15
2018-01-20T06:13:19.604Z,1002.15
2018-01-20T06:14:00.163Z,1002.14
2018-01-20T06:14:40.743Z,1002.18
2018-01-20T06:15:21.301Z,1002.22
2018-01-20T06:16:01.848Z,1002.16
2018-01-20T06:16:42.405Z,1002.18
2018-01-20T06:17:22.966Z,1002.21
2018-01-20T06:18:03.530Z,1002.18
2018-01-20T06:18:44.095Z,1002.15
2018-01-20T06:19:24.668Z,1002.15
2018-01-20T06:20:05.223Z,1002.13
2018-01-20T06:20:45.777Z,1002.18
2018-01-20T06:21:26.333Z,1002.18
2018-01-20T06:22:06.910Z,1002.13
2018-01-20T06:22:47.475Z,1002.12
2018-01-20T06:23:28.030Z,1002.18
2018-01-20T06:24:08.606Z,1002.18
2018-01-20T06:24:49.172Z,1002.13
2018-01-20T06:25:29.733Z,1002.11
2018-01-20T06:26:10.307Z,1002.09
2018-01-20T06:26:50.902Z,1002.1
2018-01-20T06:27:31.456Z,1002.12
2018-01-20T06:28:12.017Z,1002.1
2018-01-20T06:28:52.592Z,1002.13
2018-01-20T06:29:33.150Z,1002.1
2018-01-20T06:30:13.703Z,1002.07
2018-01-20T06:30:54.277Z,1002.05
2018-01-20T06:31:34.831Z,1002.1
2018-01-20T06:32:15.407Z,1002.11
2018-01-20T06:32:55.968Z,1002.05
2018-01-20T06:33:36.526Z,1002.09
2018-01-20T06:34:17.082Z,1002.07
2018-01-20T06:34:57.668Z,1002.06
2018-01-20T06:35:38.232Z,1002.06
2018-01-20T06:36:18.793Z,1002.08
2018-01-20T06:36:59.359Z,1002.08
2018-01-20T06:37:39.927Z,1002.06
2018-01-20T06:38:20.500Z,1002.06
2018-01-20T06:39:01.069Z,1002.03
2018-01-20T06:39:41.644Z,1002.07
2018-01-20T06:40:22.200Z,1002.05
2018-01-20T06:41:02.765Z,1002.05
2018-01-20T06:41:43.333Z,1002.05
2018-01-20T06:42:23.883Z,1002.06
2018-01-20T06:43:05.006Z,1002.05
2018-01-20T06:43:46.270Z,1002.03
2018-01-20T06:44:26.964Z,1002.06
2018-01-20T06:45:07.733Z,1002.04
2018-01-20T06:45:48.347Z,1002.03
2018-01-20T06:46:29.040Z,1002.06
2018-01-20T06:47:09.878Z,1002.02
2018-01-20T06:47:50.437Z,1002
2018-01-20T06:48:30.985Z,1001.99
2018-01-20T06:49:11.640Z,1002.05
2018-01-20T06:49:52.737Z,1002.03
2018-01-20T06:50:33.711Z,1002.02
2018-01-20T06:51:14.277Z,1002.01
2018-01-20T06:51:54.871Z,1002.07
2018-01-20T06:52:35.438Z,1002.04
2018-01-20T06:53:16.005Z,1002.06
2018-01-20T06:53:56.575Z,1002.05
2018-01-20T06:54:37.129Z,1002.06
2018-01-20T06:55:17.684Z,1002.12
2018-01-20T06:55:58.240Z,1002.09
2018-01-20T06:56:39.439Z,1002.1
2018-01-20T06:57:20.270Z,1002.09
2018-01-20T06:58:02.089Z,1002.04
2018-01-20T06:58:47.876Z,1002.09
2018-01-20T06:59:28.441Z,1002.11
2018-01-20T07:00:09.006Z,1002.09
2018-01-20T07:00:49.580Z,1002.1
2018-01-20T07:01:30.152Z,1002.11
2018-01-20T07:02:10.704Z,1002.12
2018-01-20T07:02:51.684Z,1002.13
2018-01-20T07:03:32.432Z,1002.1
2018-01-20T07:04:12.984Z,1002.1
2018-01-20T07:04:53.630Z,1002.11
2018-01-20T07:05:34.183Z,1002.13
2018-01-20T07:06:14.781Z,1002.11
2018-01-20T07:06:55.885Z,1002.15
2018-01-20T07:07:36.443Z,1002.2
2018-01-20T07:08:17.612Z,1002.16
2018-01-20T07:08:58.447Z,1002.2
2018-01-20T07:09:39.130Z,1002.21
2018-01-20T07:10:19.687Z,1002.19
2018-01-20T07:11:00.286Z,1002.18
2018-01-20T07:11:40.890Z,1002.19
2018-01-20T07:12:22.023Z,1002.2
2018-01-20T07:13:02.665Z,1002.16
2018-01-20T07:13:43.225Z,1002.18
2018-01-20T07:14:23.787Z,1002.16
2018-01-20T07:15:04.353Z,1002.19
2018-01-20T07:15:45.147Z,1002.21
2018-01-20T07:16:25.931Z,1002.19
2018-01-20T07:17:06.481Z,1002.19
2018-01-20T07:17:47.832Z,1002.21
2018-01-20T07:18:28.769Z,1002.19
2018-01-20T07:19:09.647Z,1002.19
2018-01-20T07:19:50.672Z,1002.19
2018-01-20T07:20:31.447Z,1002.19
2018-01-20T07:21:12.150Z,1002.23
2018-01-20T07:21:52.973Z,1002.22
2018-01-20T07:22:33.933Z,1002.23
2018-01-20T07:23:14.670Z,1002.26
2018-01-20T07:23:55.376Z,1002.25
2018-01-20T07:24:36.286Z,1002.21
2018-01-20T07:25:17.162Z,1002.22
2018-01-20T07:25:58.071Z,1002.24
2018-01-20T07:26:38.878Z,1002.25
2018-01-20T07:27:19.667Z,1002.23
2018-01-20T07:28:00.572Z,1002.22
2018-01-20T07:28:42.493Z,1002.2
2018-01-20T07:29:23.100Z,1002.21
2018-01-20T07:30:03.655Z,1002.21
2018-01-20T07:30:44.986Z,1002.19
2018-01-20T07:31:25.549Z,1002.19
2018-01-20T07:32:06.102Z,1002.19
2018-01-20T07:32:46.662Z,1002.26
2018-01-20T07:33:27.220Z,1002.26
2018-01-20T07:34:07.779Z,1002.27
2018-01-20T07:34:48.341Z,1002.25
2018-01-20T07:35:28.914Z,1002.25
2018-01-20T07:36:09.479Z,1002.26
2018-01-20T07:36:50.043Z,1002.24
2018-01-20T07:37:30.608Z,1002.24
2018-01-20T07:38:11.168Z,1002.27
2018-01-20T07:38:51.730Z,1002.24
2018-01-20T07:39:32.281Z,1002.24
2018-01-20T07:40:12.844Z,1002.22
2018-01-20T07:40:53.402Z,1002.23
2018-01-20T07:41:33.958Z,1002.24
2018-01-20T07:42:14.563Z,1002.23
2018-01-20T07:42:55.127Z,1002.22
2018-01-20T07:43:35.692Z,1002.25
2018-01-20T07:44:16.261Z,1002.23
2018-01-20T07:44:56.813Z,1002.19
2018-01-20T07:45:37.396Z,1002.21
2018-01-20T07:46:17.946Z,1002.18
2018-01-20T07:46:58.529Z,1002.18
2018-01-20T07:47:39.064Z,1002.19
2018-01-20T07:48:19.687Z,1002.2
2018-01-20T07:49:00.249Z,1002.2
2018-01-20T07:49:41.164Z,1002.17
2018-01-20T07:50:21.795Z,1002.23
2018-01-20T07:51:02.393Z,1002.23
2018-01-20T07:51:42.988Z,1002.23
2018-01-20T07:52:23.548Z,1002.28
2018-01-20T07:53:04.153Z,1002.28
2018-01-20T07:53:44.818Z,1002.27
2018-01-20T07:54:25.385Z,1002.26
2018-01-20T07:55:05.937Z,1002.27
2018-01-20T07:55:46.524Z,1002.27
2018-01-20T07:56:27.085Z,1002.19
2018-01-20T07:57:07.662Z,1002.19
2018-01-20T07:57:48.217Z,1002.22
2018-01-20T07:58:28.777Z,1002.23
2018-01-20T07:59:09.428Z,1002.22
2018-01-20T07:59:50.046Z,1002.19
2018-01-20T08:00:30.640Z,1002.22
2018-01-20T08:01:11.349Z,1002.24
2018-01-20T08:01:51.910Z,1002.22
2018-01-20T08:02:32.463Z,1002.25
2018-01-20T08:03:13.193Z,1002.23
2018-01-20T08:03:53.753Z,1002.21
2018-01-20T08:04:34.318Z,1002.21
2018-01-20T08:05:15.106Z,1002.23
2018-01-20T08:05:55.701Z,1002.24
2018-01-20T08:06:36.272Z,1002.21
2018-01-20T08:07:16.828Z,1002.23
2018-01-20T08:07:57.384Z,1002.19
2018-01-20T08:08:37.961Z,1002.23
2018-01-20T08:09:18.530Z,1002.2
2018-01-20T08:09:59.135Z,1002.21
2018-01-20T08:10:39.707Z,1002.19
2018-01-20T08:11:20.283Z,1002.22
2018-01-20T08:12:00.841Z,1002.21
2018-01-20T08:12:41.551Z,1002.23